createdAt,value
2023-05-12T00:00:28.722Z,95611.00
2023-05-12T00:01:28.785Z,95611.00
2023-05-12T00:02:29.859Z,95613.00
2023-05-12T00:03:30.031Z,95611.00
2023-05-12T00:04:29.904Z,95613.00
2023-05-12T00:05:29.935Z,95613.00
2023-05-12T00:06:29.977Z,95613.00
2023-05-12T00:07:29.015Z,95613.00
2023-05-12T00:08:30.033Z,95613.00
2023-05-12T00:09:30.051Z,95611.00
2023-05-12T00:10:30.066Z,95613.00
2023-05-12T00:11:30.072Z,95611.00
2023-05-12T00:12:30.107Z,95607.00
2023-05-12T00:13:30.169Z,95607.00
2023-05-12T00:14:30.159Z,95605.00
2023-05-12T00:15:29.162Z,95603.00
2023-05-12T00:16:30.268Z,95603.00
2023-05-12T00:17:30.236Z,95605.00
2023-05-12T00:18:30.232Z,95603.00
2023-05-12T00:19:30.267Z,95599.00
2023-05-12T00:20:30.286Z,95599.00
2023-05-12T00:21:29.355Z,95601.00
2023-05-12T00:22:29.355Z,95601.00
2023-05-12T00:23:30.391Z,95595.00
2023-05-12T00:24:30.425Z,95595.00
2023-05-12T00:25:30.446Z,95595.00
2023-05-12T00:26:29.498Z,95601.00
2023-05-12T00:27:30.547Z,95599.00
2023-05-12T00:28:30.597Z,95599.00
2023-05-12T00:29:30.641Z,95597.00
2023-05-12T00:30:30.691Z,95601.00
2023-05-12T00:31:30.752Z,95595.00
2023-05-12T00:32:29.825Z,95593.00
2023-05-12T00:33:29.794Z,95591.00
2023-05-12T00:34:30.840Z,95595.00
2023-05-12T00:35:30.846Z,95591.00
2023-05-12T00:36:30.897Z,95591.00
2023-05-12T00:37:30.903Z,95597.00
2023-05-12T00:38:30.926Z,95597.00
2023-05-12T00:39:29.940Z,95597.00
2023-05-12T00:40:30.939Z,95599.00
2023-05-12T00:41:30.010Z,95597.00
2023-05-12T00:42:31.069Z,95597.00
2023-05-12T00:43:31.092Z,95593.00
2023-05-12T00:44:31.155Z,95599.00
2023-05-12T00:45:30.193Z,95593.00
2023-05-12T00:46:31.290Z,95597.00
2023-05-12T00:47:30.358Z,95597.00
2023-05-12T00:48:31.342Z,95597.00
2023-05-12T00:49:30.366Z,95595.00
2023-05-12T00:50:31.392Z,95593.00
2023-05-12T00:51:31.418Z,95593.00
2023-05-12T00:52:30.450Z,95593.00
2023-05-12T00:53:44.991Z,95589.00
2023-05-12T00:54:31.505Z,95589.00
2023-05-12T00:55:31.474Z,95589.00
2023-05-12T00:56:31.450Z,95589.00
2023-05-12T00:57:30.453Z,95589.00
2023-05-12T00:58:30.450Z,95593.00
2023-05-12T00:59:30.463Z,95593.00
2023-05-12T01:00:31.430Z,95593.00
2023-05-12T01:01:31.480Z,95595.00
2023-05-12T01:02:30.465Z,95595.00
2023-05-12T01:03:31.550Z,95599.00
2023-05-12T01:04:31.431Z,95599.00
2023-05-12T01:05:30.393Z,95599.00
2023-05-12T01:06:30.409Z,95599.00
2023-05-12T01:07:30.371Z,95601.00
2023-05-12T01:08:31.375Z,95599.00
2023-05-12T01:09:31.366Z,95601.00
2023-05-12T01:10:30.367Z,95597.00
2023-05-12T01:11:31.394Z,95597.00
2023-05-12T01:12:30.384Z,95597.00
2023-05-12T01:13:30.333Z,95597.00
2023-05-12T01:14:31.321Z,95595.00
2023-05-12T01:15:31.309Z,95597.00
2023-05-12T01:16:31.321Z,95595.00
2023-05-12T01:17:30.461Z,95593.00
2023-05-12T01:18:31.467Z,95593.00
2023-05-12T01:19:30.302Z,95595.00
2023-05-12T01:20:31.339Z,95591.00
2023-05-12T01:21:30.264Z,95593.00
2023-05-12T01:22:31.273Z,95591.00
2023-05-12T01:23:31.266Z,95593.00
2023-05-12T01:24:31.276Z,95597.00
2023-05-12T01:25:31.254Z,95597.00
2023-05-12T01:26:30.247Z,95595.00
2023-05-12T01:27:31.239Z,95593.00
2023-05-12T01:28:31.218Z,95597.00
2023-05-12T01:29:30.230Z,95595.00
2023-05-12T01:30:30.250Z,95595.00
2023-05-12T01:31:31.265Z,95595.00
2023-05-12T01:32:30.325Z,95589.00
2023-05-12T01:33:31.307Z,95589.00
2023-05-12T01:34:30.308Z,95591.00
2023-05-12T01:35:31.334Z,95593.00
2023-05-12T01:36:31.462Z,95591.00
2023-05-12T01:37:30.404Z,95593.00
2023-05-12T01:38:30.450Z,95591.00
2023-05-12T01:39:31.488Z,95591.00
2023-05-12T01:40:31.554Z,95597.00
2023-05-12T01:41:31.575Z,95593.00
2023-05-12T01:42:31.620Z,95593.00
2023-05-12T01:43:30.640Z,95595.00
2023-05-12T01:44:31.658Z,95595.00
2023-05-12T01:45:30.650Z,95601.00
2023-05-12T01:46:30.742Z,95603.00
2023-05-12T01:47:31.884Z,95605.00
2023-05-12T01:48:31.801Z,95599.00
2023-05-12T01:49:31.855Z,95603.00
2023-05-12T01:50:30.838Z,95599.00
2023-05-12T01:51:31.893Z,95599.00
2023-05-12T01:52:30.924Z,95599.00
2023-05-12T01:53:31.951Z,95597.00
2023-05-12T01:54:30.984Z,95597.00
2023-05-12T01:55:32.018Z,95595.00
2023-05-12T01:56:31.054Z,95593.00
2023-05-12T01:57:31.124Z,95597.00
2023-05-12T01:58:32.126Z,95593.00
2023-05-12T01:59:31.147Z,95589.00
2023-05-12T02:00:31.138Z,95589.00
2023-05-12T02:01:31.205Z,95589.00
2023-05-12T02:02:32.290Z,95589.00
2023-05-12T02:03:31.352Z,95589.00
2023-05-12T02:04:32.250Z,95591.00
2023-05-12T02:05:31.246Z,95589.00
2023-05-12T02:06:31.266Z,95589.00
2023-05-12T02:07:31.282Z,95591.00
2023-05-12T02:08:32.326Z,95593.00
2023-05-12T02:09:32.352Z,95589.00
2023-05-12T02:10:31.370Z,95589.00
2023-05-12T02:11:31.437Z,95589.00
2023-05-12T02:12:32.424Z,95589.00
2023-05-12T02:13:32.482Z,95591.00
2023-05-12T02:14:32.551Z,95593.00
2023-05-12T02:15:31.598Z,95593.00
2023-05-12T02:16:32.668Z,95597.00
2023-05-12T02:17:32.716Z,95597.00
2023-05-12T02:18:32.796Z,95597.00
2023-05-12T02:19:31.795Z,95599.00
2023-05-12T02:20:32.804Z,95595.00
2023-05-12T02:21:31.801Z,95595.00
2023-05-12T02:22:31.849Z,95597.00
2023-05-12T02:23:31.856Z,95599.00
2023-05-12T02:24:31.906Z,95597.00
2023-05-12T02:25:32.909Z,95599.00
2023-05-12T02:26:32.926Z,95597.00
2023-05-12T02:27:31.975Z,95599.00
2023-05-12T02:28:33.030Z,95597.00
2023-05-12T02:29:33.012Z,95597.00
2023-05-12T02:30:33.016Z,95599.00
2023-05-12T02:31:33.071Z,95597.00
2023-05-12T02:32:32.060Z,95601.00
2023-05-12T02:33:33.035Z,95597.00
2023-05-12T02:34:33.068Z,95595.00
2023-05-12T02:35:32.035Z,95593.00
2023-05-12T02:36:32.049Z,95593.00
2023-05-12T02:37:33.082Z,95593.00
2023-05-12T02:38:33.101Z,95593.00
2023-05-12T02:39:33.306Z,95593.00
2023-05-12T02:40:33.241Z,95595.00
2023-05-12T02:41:33.209Z,95595.00
2023-05-12T02:42:32.213Z,95597.00
2023-05-12T02:43:33.278Z,95597.00
2023-05-12T02:44:33.323Z,95601.00
2023-05-12T02:45:32.358Z,95599.00
2023-05-12T02:46:32.354Z,95597.00
2023-05-12T02:47:33.417Z,95601.00
2023-05-12T02:48:33.365Z,95601.00
2023-05-12T02:49:33.384Z,95601.00
2023-05-12T02:50:33.433Z,95597.00
2023-05-12T02:51:32.491Z,95595.00
2023-05-12T02:52:32.513Z,95595.00
2023-05-12T02:53:33.584Z,95595.00
2023-05-12T02:54:33.624Z,95591.00
2023-05-12T02:55:32.672Z,95591.00
2023-05-12T02:56:34.062Z,95589.00
2023-05-12T02:57:32.656Z,95591.00
2023-05-12T02:58:33.674Z,95589.00
2023-05-12T02:59:33.688Z,95586.00
2023-05-12T03:00:33.701Z,95586.00
2023-05-12T03:01:33.750Z,95586.00
2023-05-12T03:02:33.828Z,95586.00
2023-05-12T03:03:32.960Z,95587.00
2023-05-12T03:04:32.834Z,95587.00
2023-05-12T03:05:32.872Z,95587.00
2023-05-12T03:06:32.868Z,95587.00
2023-05-12T03:07:32.917Z,95587.00
2023-05-12T03:08:32.989Z,95589.00
2023-05-12T03:09:34.026Z,95587.00
2023-05-12T03:10:33.041Z,95589.00
2023-05-12T03:11:33.129Z,95589.00
2023-05-12T03:12:34.156Z,95589.00
2023-05-12T03:13:34.181Z,95589.00
2023-05-12T03:14:34.219Z,95593.00
2023-05-12T03:15:34.218Z,95591.00
2023-05-12T03:16:34.294Z,95591.00
2023-05-12T03:17:34.303Z,95595.00
2023-05-12T03:18:34.347Z,95593.00
2023-05-12T03:19:33.326Z,95595.00
2023-05-12T03:20:33.320Z,95593.00
2023-05-12T03:21:34.318Z,95597.00
2023-05-12T03:22:34.350Z,95595.00
2023-05-12T03:23:33.378Z,95597.00
2023-05-12T03:24:33.384Z,95593.00
2023-05-12T03:25:33.422Z,95599.00
2023-05-12T03:26:33.461Z,95595.00
2023-05-12T03:27:34.500Z,95597.00
2023-05-12T03:28:34.498Z,95595.00
2023-05-12T03:29:34.509Z,95595.00
2023-05-12T03:30:33.547Z,95595.00
2023-05-12T03:31:34.569Z,95595.00
2023-05-12T03:32:33.664Z,95593.00
2023-05-12T03:33:34.612Z,95591.00
2023-05-12T03:34:33.625Z,95593.00
2023-05-12T03:35:33.618Z,95591.00
2023-05-12T03:36:33.648Z,95593.00
2023-05-12T03:37:33.713Z,95595.00
2023-05-12T03:38:34.760Z,95599.00
2023-05-12T03:39:34.818Z,95599.00
2023-05-12T03:40:33.849Z,95599.00
2023-05-12T03:41:34.899Z,95601.00
2023-05-12T03:42:34.951Z,95597.00
2023-05-12T03:43:34.113Z,95597.00
2023-05-12T03:44:35.040Z,95595.00
2023-05-12T03:45:33.998Z,95599.00
2023-05-12T03:46:35.151Z,95597.00
2023-05-12T03:47:34.285Z,95597.00
2023-05-12T03:48:35.114Z,95599.00
2023-05-12T03:49:35.194Z,95597.00
2023-05-12T03:50:35.244Z,95601.00
2023-05-12T03:51:35.254Z,95603.00
2023-05-12T03:52:35.325Z,95605.00
2023-05-12T03:53:35.374Z,95605.00
2023-05-12T03:55:34.414Z,95605.00
2023-05-12T03:56:35.465Z,95603.00
2023-05-12T03:57:35.479Z,95599.00
2023-05-12T03:58:34.501Z,95601.00
2023-05-12T03:59:35.556Z,95605.00
2023-05-12T04:00:35.141Z,95603.00
2023-05-12T04:01:35.546Z,95611.00
2023-05-12T04:02:35.643Z,95609.00
2023-05-12T04:03:34.766Z,95609.00
2023-05-12T04:04:34.688Z,95611.00
2023-05-12T04:05:35.754Z,95611.00
2023-05-12T04:06:35.791Z,95611.00
2023-05-12T04:07:34.846Z,95611.00
2023-05-12T04:08:35.858Z,95611.00
2023-05-12T04:09:34.876Z,95611.00
2023-05-12T04:10:35.950Z,95611.00
2023-05-12T04:11:34.956Z,95609.00
2023-05-12T04:12:34.980Z,95611.00
2023-05-12T04:13:36.007Z,95609.00
2023-05-12T04:14:42.353Z,95613.00
2023-05-12T04:15:36.048Z,95617.00
2023-05-12T04:16:36.056Z,95617.00
2023-05-12T04:17:36.028Z,95615.00
2023-05-12T04:18:35.055Z,95617.00
2023-05-12T04:19:35.996Z,95617.00
2023-05-12T04:20:34.978Z,95617.00
2023-05-12T04:21:35.968Z,95615.00
2023-05-12T04:22:35.972Z,95617.00
2023-05-12T04:23:35.957Z,95613.00
2023-05-12T04:24:35.952Z,95617.00
2023-05-12T04:25:35.961Z,95615.00
2023-05-12T04:26:34.921Z,95619.00
2023-05-12T04:27:35.936Z,95619.00
2023-05-12T04:28:34.907Z,95621.00
2023-05-12T04:29:35.933Z,95623.00
2023-05-12T04:30:35.944Z,95621.00
2023-05-12T04:31:36.008Z,95619.00
2023-05-12T04:32:36.050Z,95619.00
2023-05-12T04:33:36.013Z,95621.00
2023-05-12T04:34:36.065Z,95617.00
2023-05-12T04:35:36.101Z,95623.00
2023-05-12T04:36:36.146Z,95623.00
2023-05-12T04:37:36.149Z,95627.00
2023-05-12T04:38:36.153Z,95625.00
2023-05-12T04:39:36.198Z,95627.00
2023-05-12T04:40:36.242Z,95627.00
2023-05-12T04:41:36.284Z,95625.00
2023-05-12T04:42:36.335Z,95627.00
2023-05-12T04:44:35.343Z,95631.00
2023-05-12T04:45:35.354Z,95629.00
2023-05-12T04:46:36.444Z,95631.00
2023-05-12T04:47:36.510Z,95629.00
2023-05-12T04:48:36.297Z,95631.00
2023-05-12T04:49:36.308Z,95629.00
2023-05-12T04:50:35.323Z,95631.00
2023-05-12T04:51:36.289Z,95631.00
2023-05-12T04:52:36.285Z,95631.00
2023-05-12T04:53:35.272Z,95633.00
2023-05-12T04:54:36.282Z,95635.00
2023-05-12T04:55:36.277Z,95635.00
2023-05-12T04:56:36.257Z,95637.00
2023-05-12T04:57:36.245Z,95637.00
2023-05-12T04:58:35.297Z,95635.00
2023-05-12T04:59:35.237Z,95638.00
2023-05-12T05:00:36.248Z,95637.00
2023-05-12T05:01:36.255Z,95637.00
2023-05-12T05:02:35.289Z,95638.00
2023-05-12T05:03:36.336Z,95638.00
2023-05-12T05:04:36.245Z,95637.00
2023-05-12T05:05:36.220Z,95635.00
2023-05-12T05:06:35.193Z,95638.00
2023-05-12T05:07:36.200Z,95637.00
2023-05-12T05:08:36.194Z,95640.00
2023-05-12T05:09:36.743Z,95637.00
2023-05-12T05:10:35.181Z,95638.00
2023-05-12T05:11:36.188Z,95637.00
2023-05-12T05:12:36.151Z,95638.00
2023-05-12T05:13:35.149Z,95637.00
2023-05-12T05:14:36.137Z,95638.00
2023-05-12T05:15:35.174Z,95637.00
2023-05-12T05:16:36.135Z,95631.00
2023-05-12T05:17:36.137Z,95633.00
2023-05-12T05:18:36.168Z,95633.00
2023-05-12T05:19:50.773Z,95635.00
2023-05-12T05:20:40.621Z,95633.00
2023-05-12T05:21:36.101Z,95633.00
2023-05-12T05:22:35.077Z,95637.00
2023-05-12T05:23:35.078Z,95633.00
2023-05-12T05:24:36.090Z,95637.00
2023-05-12T05:25:36.081Z,95635.00
2023-05-12T05:26:35.062Z,95633.00
2023-05-12T05:27:36.056Z,95631.00
2023-05-12T05:28:35.047Z,95633.00
2023-05-12T05:29:35.031Z,95633.00
2023-05-12T05:30:36.044Z,95635.00
2023-05-12T05:31:35.136Z,95633.00
2023-05-12T05:32:36.080Z,95631.00
2023-05-12T05:33:35.027Z,95629.00
2023-05-12T05:34:36.094Z,95633.00
2023-05-12T05:35:36.031Z,95629.00
2023-05-12T05:36:35.973Z,95627.00
2023-05-12T05:37:34.975Z,95629.00
2023-05-12T05:38:36.010Z,95627.00
2023-05-12T05:39:35.990Z,95625.00
2023-05-12T05:40:48.732Z,95627.00
2023-05-12T05:41:35.968Z,95627.00
2023-05-12T05:42:34.961Z,95629.00
2023-05-12T05:43:35.940Z,95631.00
2023-05-12T05:44:35.942Z,95631.00
2023-05-12T05:45:34.936Z,95629.00
2023-05-12T05:46:34.954Z,95631.00
2023-05-12T05:47:35.953Z,95627.00
2023-05-12T05:48:35.903Z,95625.00
2023-05-12T05:49:35.902Z,95625.00
2023-05-12T05:50:35.997Z,95627.00
2023-05-12T05:51:35.971Z,95625.00
2023-05-12T05:52:36.000Z,95627.00
2023-05-12T05:53:35.999Z,95625.00
2023-05-12T05:54:35.041Z,95627.00
2023-05-12T05:55:36.069Z,95623.00
2023-05-12T05:56:36.112Z,95617.00
2023-05-12T05:57:36.360Z,95621.00
2023-05-12T05:58:36.237Z,95617.00
2023-05-12T05:59:36.933Z,95617.00
2023-05-12T06:00:36.188Z,95621.00
2023-05-12T06:01:36.239Z,95619.00
2023-05-12T06:02:36.351Z,95617.00
2023-05-12T06:03:36.266Z,95623.00
2023-05-12T06:04:36.237Z,95619.00
2023-05-12T06:05:36.219Z,95619.00
2023-05-12T06:06:36.296Z,95621.00
2023-05-12T06:07:36.252Z,95619.00
2023-05-12T06:08:36.257Z,95623.00
2023-05-12T06:09:36.289Z,95623.00
2023-05-12T06:10:36.314Z,95621.00
2023-05-12T06:11:36.310Z,95619.00
2023-05-12T06:12:36.311Z,95621.00
2023-05-12T06:13:36.380Z,95625.00
2023-05-12T06:14:36.453Z,95621.00
2023-05-12T06:15:35.431Z,95621.00
2023-05-12T06:16:36.582Z,95619.00
2023-05-12T06:17:35.624Z,95621.00
2023-05-12T06:18:35.660Z,95617.00
2023-05-12T06:19:36.661Z,95621.00
2023-05-12T06:20:36.774Z,95623.00
2023-05-12T06:21:35.766Z,95619.00
2023-05-12T06:22:36.810Z,95621.00
2023-05-12T06:23:36.864Z,95621.00
2023-05-12T06:24:36.926Z,95625.00
2023-05-12T06:25:36.946Z,95623.00
2023-05-12T06:26:41.365Z,95621.00
2023-05-12T06:27:36.141Z,95621.00
2023-05-12T06:28:36.995Z,95619.00
2023-05-12T06:30:55.746Z,95621.00
2023-05-12T06:31:55.650Z,95625.00
2023-05-12T06:32:55.860Z,95625.00
2023-05-12T06:33:56.548Z,95629.00
2023-05-12T06:34:56.739Z,95625.00
2023-05-12T06:35:56.471Z,95629.00
2023-05-12T06:39:53.614Z,95629.00
2023-05-12T06:41:58.795Z,95631.00
2023-05-12T06:42:59.902Z,95631.00
2023-05-12T06:44:00.337Z,95635.00
2023-05-12T06:46:18.883Z,95633.00
2023-05-12T06:48:38.074Z,95633.00
2023-05-12T06:49:38.771Z,95627.00
2023-05-12T06:50:37.813Z,95631.00
2023-05-12T06:51:37.795Z,95631.00
2023-05-12T06:52:38.756Z,95631.00
2023-05-12T06:53:38.917Z,95631.00
2023-05-12T06:54:37.955Z,95635.00
2023-05-12T06:55:37.645Z,95633.00
2023-05-12T06:56:38.867Z,95633.00
2023-05-12T06:57:37.696Z,95631.00
2023-05-12T06:58:38.608Z,95627.00
2023-05-12T06:59:38.615Z,95629.00
2023-05-12T07:00:38.633Z,95629.00
2023-05-12T07:01:38.825Z,95627.00
2023-05-12T07:02:37.679Z,95629.00
2023-05-12T07:03:37.716Z,95631.00
2023-05-12T07:04:37.619Z,95631.00
2023-05-12T07:05:37.666Z,95631.00
2023-05-12T07:06:38.891Z,95631.00
2023-05-12T07:07:38.714Z,95631.00
2023-05-12T07:08:38.948Z,95633.00
2023-05-12T07:11:28.402Z,95629.00
2023-05-12T07:12:27.302Z,95627.00
2023-05-12T07:13:26.900Z,95625.00
2023-05-12T07:14:26.435Z,95627.00
2023-05-12T07:15:27.294Z,95625.00
2023-05-12T07:16:27.274Z,95625.00
2023-05-12T07:17:27.252Z,95629.00
2023-05-12T07:18:27.971Z,95625.00
2023-05-12T07:19:26.376Z,95627.00
2023-05-12T07:20:27.493Z,95629.00
2023-05-12T07:21:27.421Z,95627.00
2023-05-12T07:22:26.722Z,95629.00
2023-05-12T07:24:45.885Z,95629.00
2023-05-12T07:28:27.873Z,95627.00
2023-05-12T07:29:27.554Z,95625.00
2023-05-12T07:30:25.686Z,95627.00
2023-05-12T07:31:25.371Z,95623.00
2023-05-12T07:32:24.421Z,95623.00
2023-05-12T07:33:25.866Z,95623.00
2023-05-12T07:35:44.043Z,95621.00
2023-05-12T07:36:46.149Z,95621.00
2023-05-12T07:37:44.170Z,95621.00
2023-05-12T07:38:44.396Z,95617.00
2023-05-12T07:39:44.423Z,95617.00
2023-05-12T07:40:45.419Z,95619.00
2023-05-12T07:41:43.409Z,95619.00
2023-05-12T07:42:44.756Z,95617.00
2023-05-12T07:45:03.209Z,95617.00
2023-05-12T07:46:03.073Z,95613.00
2023-05-12T07:47:04.356Z,95613.00
2023-05-12T07:48:02.968Z,95613.00
2023-05-12T07:49:02.922Z,95613.00
2023-05-12T07:50:04.015Z,95611.00
2023-05-12T07:51:04.344Z,95613.00
2023-05-12T07:52:04.093Z,95609.00
2023-05-12T07:53:04.154Z,95611.00
2023-05-12T07:54:03.972Z,95611.00
2023-05-12T07:55:03.907Z,95609.00
2023-05-12T07:56:02.928Z,95609.00
2023-05-12T07:57:03.912Z,95613.00
2023-05-12T07:58:02.854Z,95609.00
2023-05-12T07:59:03.910Z,95615.00
2023-05-12T08:00:03.831Z,95615.00
2023-05-12T08:01:03.853Z,95613.00
2023-05-12T08:02:03.879Z,95615.00
2023-05-12T08:03:02.897Z,95611.00
2023-05-12T08:04:02.873Z,95613.00
2023-05-12T08:05:03.807Z,95615.00
2023-05-12T08:06:03.806Z,95611.00
2023-05-12T08:07:03.781Z,95613.00
2023-05-12T08:08:03.780Z,95611.00
2023-05-12T08:09:03.766Z,95609.00
2023-05-12T08:10:03.784Z,95609.00
2023-05-12T08:11:03.767Z,95611.00
2023-05-12T08:12:03.766Z,95609.00
2023-05-12T08:13:03.751Z,95607.00
2023-05-12T08:14:02.738Z,95607.00
2023-05-12T08:15:03.720Z,95609.00
2023-05-12T08:16:03.787Z,95609.00
2023-05-12T08:17:02.849Z,95607.00
2023-05-12T08:18:02.746Z,95609.00
2023-05-12T08:19:03.785Z,95607.00
2023-05-12T08:20:03.718Z,95605.00
2023-05-12T08:21:03.688Z,95605.00
2023-05-12T08:22:03.690Z,95603.00
2023-05-12T08:24:22.710Z,95609.00
2023-05-12T08:25:23.144Z,95607.00
2023-05-12T08:26:23.148Z,95603.00
2023-05-12T08:27:22.124Z,95603.00
2023-05-12T08:28:23.083Z,95607.00
2023-05-12T08:29:22.120Z,95605.00
2023-05-12T08:30:24.506Z,95605.00
2023-05-12T08:31:23.143Z,95605.00
2023-05-12T08:32:22.506Z,95603.00
2023-05-12T08:33:22.062Z,95605.00
2023-05-12T08:34:22.061Z,95603.00
2023-05-12T08:35:22.471Z,95603.00
2023-05-12T08:36:28.249Z,95603.00
2023-05-12T08:38:50.169Z,95599.00
2023-05-12T08:41:00.618Z,95603.00
2023-05-12T08:42:00.744Z,95605.00
2023-05-12T08:43:16.384Z,95603.00
2023-05-12T08:44:22.746Z,95605.00
2023-05-12T08:50:12.396Z,95601.00
2023-05-12T08:53:51.016Z,95591.00
2023-05-12T08:54:55.995Z,95595.00
2023-05-12T08:57:09.549Z,95589.00
2023-05-12T08:57:50.775Z,95595.00
2023-05-12T08:58:51.757Z,95595.00
2023-05-12T09:02:51.377Z,95597.00
2023-05-12T09:04:48.024Z,95593.00
2023-05-12T09:05:47.386Z,95595.00
2023-05-12T09:06:48.309Z,95589.00
2023-05-12T09:09:06.626Z,95586.00
2023-05-12T09:10:06.540Z,95587.00
2023-05-12T09:12:26.392Z,95586.00
2023-05-12T09:13:26.436Z,95584.00
2023-05-12T09:14:34.378Z,95586.00
2023-05-12T09:15:25.253Z,95586.00
2023-05-12T09:16:25.314Z,95586.00
2023-05-12T09:17:26.335Z,95584.00
2023-05-12T09:19:44.264Z,95584.00
2023-05-12T09:20:45.287Z,95582.00
2023-05-12T09:21:45.471Z,95582.00
2023-05-12T09:22:44.479Z,95582.00
2023-05-12T09:23:44.299Z,95582.00
2023-05-12T09:28:41.955Z,95584.00
2023-05-12T09:29:58.039Z,95582.00
2023-05-12T09:30:43.006Z,95580.00
2023-05-12T09:31:42.958Z,95584.00
2023-05-12T09:32:45.160Z,95582.00
2023-05-12T09:33:42.878Z,95584.00
2023-05-12T09:34:41.871Z,95584.00
2023-05-12T09:35:43.174Z,95582.00
2023-05-12T09:36:42.953Z,95580.00
2023-05-12T09:37:42.941Z,95576.00
2023-05-12T09:38:54.217Z,95578.00
2023-05-12T09:39:42.818Z,95578.00
2023-05-12T09:40:42.855Z,95580.00
2023-05-12T09:41:41.797Z,95578.00
2023-05-12T09:42:41.964Z,95578.00
2023-05-12T09:43:42.946Z,95580.00
2023-05-12T09:44:41.792Z,95580.00
2023-05-12T09:45:42.878Z,95578.00
2023-05-12T09:46:42.854Z,95576.00
2023-05-12T09:47:43.162Z,95580.00
2023-05-12T09:48:42.816Z,95582.00
2023-05-12T09:49:43.042Z,95578.00
2023-05-12T09:50:47.360Z,95578.00
2023-05-12T09:51:43.023Z,95576.00
2023-05-12T09:52:42.257Z,95572.00
2023-05-12T09:53:43.026Z,95576.00
2023-05-12T09:54:42.902Z,95572.00
2023-05-12T09:55:42.816Z,95574.00
2023-05-12T09:56:42.909Z,95568.00
2023-05-12T09:57:42.829Z,95572.00
2023-05-12T09:58:42.706Z,95568.00
2023-05-12T09:59:43.774Z,95566.00
2023-05-12T10:01:41.715Z,95566.00
2023-05-12T10:02:42.725Z,95566.00
2023-05-12T10:03:41.702Z,95566.00
2023-05-12T10:04:42.702Z,95564.00
2023-05-12T10:05:42.645Z,95564.00
2023-05-12T10:06:54.201Z,95562.00
2023-05-12T10:07:42.648Z,95562.00
2023-05-12T10:08:42.666Z,95556.00
2023-05-12T10:09:42.078Z,95558.00
2023-05-12T10:12:01.556Z,95554.00
2023-05-12T10:14:21.091Z,95552.00
2023-05-12T10:15:22.200Z,95552.00
2023-05-12T10:16:20.926Z,95552.00
2023-05-12T10:17:22.228Z,95550.00
2023-05-12T10:18:21.952Z,95552.00
2023-05-12T10:19:20.804Z,95554.00
2023-05-12T10:21:40.177Z,95556.00
2023-05-12T10:22:40.859Z,95554.00
2023-05-12T10:23:41.506Z,95558.00
2023-05-12T10:24:42.341Z,95556.00
2023-05-12T10:27:00.152Z,95558.00
2023-05-12T10:27:59.586Z,95558.00
2023-05-12T10:30:18.477Z,95556.00
2023-05-12T10:31:19.615Z,95560.00
2023-05-12T10:32:24.166Z,95552.00
2023-05-12T10:35:49.814Z,95554.00
2023-05-12T10:42:29.978Z,95552.00
2023-05-12T10:44:51.011Z,95550.00
2023-05-12T10:47:08.000Z,95550.00
2023-05-12T10:48:09.241Z,95552.00
2023-05-12T10:49:09.074Z,95550.00
2023-05-12T10:50:07.949Z,95550.00
2023-05-12T10:51:08.929Z,95548.00
2023-05-12T10:52:08.038Z,95552.00
2023-05-12T10:53:10.514Z,95552.00
2023-05-12T10:54:09.171Z,95550.00
2023-05-12T10:55:09.247Z,95550.00
2023-05-12T10:56:08.663Z,95546.00
2023-05-12T10:57:08.398Z,95550.00
2023-05-12T10:58:08.757Z,95554.00
2023-05-12T10:59:08.605Z,95552.00
2023-05-12T11:00:08.649Z,95550.00
2023-05-12T11:01:09.170Z,95550.00
2023-05-12T11:02:09.161Z,95550.00
2023-05-12T11:03:10.382Z,95546.00
2023-05-12T11:04:09.518Z,95552.00
2023-05-12T11:05:10.069Z,95552.00
2023-05-12T11:06:10.354Z,95550.00
2023-05-12T11:07:09.786Z,95548.00
2023-05-12T11:08:09.751Z,95546.00
2023-05-12T11:09:09.551Z,95550.00
2023-05-12T11:10:10.531Z,95550.00
2023-05-12T11:11:09.394Z,95552.00
2023-05-12T11:12:09.354Z,95556.00
2023-05-12T11:13:08.453Z,95550.00
2023-05-12T11:14:09.365Z,95556.00
2023-05-12T11:15:08.431Z,95554.00
2023-05-12T11:16:09.416Z,95554.00
2023-05-12T11:17:08.425Z,95550.00
2023-05-12T11:18:09.542Z,95548.00
2023-05-12T11:19:09.538Z,95550.00
2023-05-12T11:20:09.496Z,95546.00
2023-05-12T11:21:09.534Z,95548.00
2023-05-12T11:27:17.110Z,95542.00
2023-05-12T11:28:13.494Z,95540.00
2023-05-12T11:30:33.194Z,95540.00
2023-05-12T11:31:31.590Z,95540.00
2023-05-12T11:35:13.969Z,95538.00
2023-05-12T11:39:44.538Z,95538.00
2023-05-12T11:40:50.500Z,95536.00
2023-05-12T11:44:26.207Z,95538.00
2023-05-12T11:45:27.144Z,95536.00
2023-05-12T11:47:46.079Z,95536.00
2023-05-12T11:48:46.897Z,95533.00
2023-05-12T11:49:48.896Z,95531.00
2023-05-12T11:50:46.667Z,95533.00
2023-05-12T11:51:46.496Z,95531.00
2023-05-12T11:54:05.311Z,95529.00
2023-05-12T11:56:24.932Z,95538.00
2023-05-12T11:57:26.129Z,95533.00
2023-05-12T12:00:26.199Z,95542.00
2023-05-12T12:01:26.055Z,95540.00
2023-05-12T12:02:27.106Z,95540.00
2023-05-12T12:03:27.208Z,95536.00
2023-05-12T12:04:27.048Z,95536.00
2023-05-12T12:05:27.022Z,95535.00
2023-05-12T12:06:27.004Z,95536.00
2023-05-12T12:07:26.986Z,95540.00
2023-05-12T12:08:25.996Z,95538.00
2023-05-12T12:09:26.981Z,95536.00
2023-05-12T12:10:26.985Z,95536.00
2023-05-12T12:11:26.939Z,95540.00
2023-05-12T12:12:26.978Z,95535.00
2023-05-12T12:13:26.048Z,95538.00
2023-05-12T12:14:26.953Z,95544.00
2023-05-12T12:15:25.914Z,95538.00
2023-05-12T12:16:26.913Z,95535.00
2023-05-12T12:17:26.947Z,95536.00
2023-05-12T12:18:25.966Z,95540.00
2023-05-12T12:19:26.948Z,95538.00
2023-05-12T12:20:26.888Z,95540.00
2023-05-12T12:21:26.866Z,95540.00
2023-05-12T12:22:26.914Z,95538.00
2023-05-12T12:23:25.975Z,95536.00
2023-05-12T12:24:25.986Z,95536.00
2023-05-12T12:25:25.999Z,95536.00
2023-05-12T12:26:26.036Z,95538.00
2023-05-12T12:27:27.055Z,95542.00
2023-05-12T12:28:26.133Z,95535.00
2023-05-12T12:29:26.156Z,95535.00
2023-05-12T12:30:27.185Z,95535.00
2023-05-12T12:31:26.260Z,95535.00
2023-05-12T12:32:27.232Z,95533.00
2023-05-12T12:33:26.288Z,95533.00
2023-05-12T12:34:26.434Z,95527.00
2023-05-12T12:35:26.358Z,95531.00
2023-05-12T12:36:27.368Z,95531.00
2023-05-12T12:37:27.367Z,95529.00
2023-05-12T12:38:26.389Z,95527.00
2023-05-12T12:39:26.423Z,95529.00
2023-05-12T12:40:27.461Z,95527.00
2023-05-12T12:41:27.463Z,95533.00
2023-05-12T12:42:26.531Z,95527.00
2023-05-12T12:43:26.561Z,95531.00
2023-05-12T12:44:27.585Z,95531.00
2023-05-12T12:45:27.573Z,95531.00
2023-05-12T12:46:26.645Z,95527.00
2023-05-12T12:47:26.698Z,95531.00
2023-05-12T12:48:27.691Z,95531.00
2023-05-12T12:49:27.669Z,95531.00
2023-05-12T12:50:27.736Z,95527.00
2023-05-12T12:51:32.598Z,95529.00
2023-05-12T12:52:27.741Z,95529.00
2023-05-12T12:53:26.739Z,95533.00
2023-05-12T12:54:27.841Z,95531.00
2023-05-12T12:55:26.733Z,95533.00
2023-05-12T12:56:27.734Z,95529.00
2023-05-12T12:57:27.696Z,95527.00
2023-05-12T12:58:26.720Z,95533.00
2023-05-12T12:59:26.703Z,95531.00
2023-05-12T13:00:27.721Z,95533.00
2023-05-12T13:01:26.786Z,95531.00
2023-05-12T13:02:26.728Z,95531.00
2023-05-12T13:03:27.717Z,95531.00
2023-05-12T13:04:26.673Z,95531.00
2023-05-12T13:05:27.671Z,95529.00
2023-05-12T13:06:27.709Z,95529.00
2023-05-12T13:07:27.769Z,95533.00